createdAt,value
2017-06-28T00:00:09.928Z,0
2017-06-28T00:01:09.942Z,0
2017-06-28T00:02:10.002Z,0
2017-06-28T00:03:10.040Z,0
2017-06-28T00:04:10.065Z,0
2017-06-28T00:05:10.085Z,0
2017-06-28T00:06:10.388Z,0
2017-06-28T00:07:10.366Z,0
2017-06-28T00:08:10.197Z,0
2017-06-28T00:09:10.248Z,0
2017-06-28T00:10:10.255Z,0
2017-06-28T00:11:10.281Z,0
2017-06-28T00:12:10.312Z,0
2017-06-28T00:13:10.565Z,0
2017-06-28T00:14:10.382Z,0
2017-06-28T00:15:10.387Z,0
2017-06-28T00:16:10.456Z,0
2017-06-28T00:17:10.468Z,0
2017-06-28T00:18:11.140Z,0
2017-06-28T00:19:10.556Z,0
2017-06-28T00:20:10.584Z,0
2017-06-28T00:21:10.614Z,0
2017-06-28T00:22:10.665Z,0
2017-06-28T00:23:10.682Z,0
2017-06-28T00:24:10.752Z,0
2017-06-28T00:25:10.750Z,0
2017-06-28T00:26:10.800Z,0
2017-06-28T00:27:10.823Z,0
2017-06-28T00:28:10.866Z,0
2017-06-28T00:29:10.910Z,0
2017-06-28T00:30:10.913Z,0
2017-06-28T00:31:10.972Z,0
2017-06-28T00:32:11.002Z,0
2017-06-28T00:33:11.021Z,0
2017-06-28T00:34:11.083Z,0
2017-06-28T00:35:11.085Z,0
2017-06-28T00:36:11.120Z,0
2017-06-28T00:37:11.169Z,0
2017-06-28T00:38:11.203Z,0
2017-06-28T00:39:11.285Z,0
2017-06-28T00:40:11.465Z,0
2017-06-28T00:41:11.282Z,0
2017-06-28T00:42:11.325Z,0
2017-06-28T00:43:11.369Z,0
2017-06-28T00:44:11.536Z,0
2017-06-28T00:45:11.458Z,0
2017-06-28T00:46:11.437Z,0
2017-06-28T00:47:11.518Z,0
2017-06-28T00:48:11.550Z,0
2017-06-28T00:49:12.228Z,0
2017-06-28T00:50:11.848Z,0
2017-06-28T00:51:11.656Z,0
2017-06-28T00:52:11.649Z,0
2017-06-28T00:53:11.666Z,0
2017-06-28T00:54:11.726Z,0
2017-06-28T00:55:11.949Z,0
2017-06-28T00:56:11.812Z,0
2017-06-28T00:57:11.824Z,0
2017-06-28T00:58:11.943Z,0
2017-06-28T00:59:11.874Z,0
2017-06-28T01:00:12.183Z,0
2017-06-28T01:01:11.961Z,0
2017-06-28T01:02:11.981Z,0
2017-06-28T01:03:12.027Z,0
2017-06-28T01:04:12.073Z,0
2017-06-28T01:05:12.209Z,0
2017-06-28T01:06:12.244Z,0
2017-06-28T01:07:12.150Z,0
2017-06-28T01:08:12.185Z,0
2017-06-28T01:09:12.223Z,0
2017-06-28T01:10:12.525Z,0
2017-06-28T01:11:12.296Z,0
2017-06-28T01:12:12.372Z,0
2017-06-28T01:13:12.376Z,0
2017-06-28T01:14:12.373Z,0
2017-06-28T01:15:12.409Z,0
2017-06-28T01:16:12.457Z,0
2017-06-28T01:17:12.517Z,0
2017-06-28T01:18:12.549Z,0
2017-06-28T01:19:12.548Z,0
2017-06-28T01:20:12.591Z,0
2017-06-28T01:21:12.625Z,0
2017-06-28T01:22:12.861Z,0
2017-06-28T01:23:12.678Z,0
2017-06-28T01:24:12.791Z,0
2017-06-28T01:25:12.750Z,0
2017-06-28T01:26:12.775Z,0
2017-06-28T01:27:12.813Z,0
2017-06-28T01:28:12.854Z,0
2017-06-28T01:29:12.890Z,0
2017-06-28T01:30:12.909Z,0
2017-06-28T01:31:12.940Z,0
2017-06-28T01:32:12.977Z,0
2017-06-28T01:33:13.026Z,0
2017-06-28T01:34:13.059Z,0
2017-06-28T01:35:13.084Z,0
2017-06-28T01:36:13.112Z,0
2017-06-28T01:37:13.156Z,0
2017-06-28T01:38:13.186Z,0
2017-06-28T01:39:13.222Z,0
2017-06-28T01:40:13.238Z,0
2017-06-28T01:41:13.275Z,0
2017-06-28T01:42:13.325Z,0
2017-06-28T01:43:13.352Z,0
2017-06-28T01:44:13.384Z,0
2017-06-28T01:45:13.403Z,0
2017-06-28T01:46:13.433Z,0
2017-06-28T01:47:13.480Z,0
2017-06-28T01:48:13.523Z,0
2017-06-28T01:49:13.545Z,0
2017-06-28T01:50:13.591Z,0
2017-06-28T01:51:13.652Z,0
2017-06-28T01:52:13.645Z,0
2017-06-28T01:53:13.687Z,0
2017-06-28T01:54:13.724Z,0
2017-06-28T01:55:13.755Z,0
2017-06-28T01:56:13.776Z,0
2017-06-28T01:57:13.823Z,0
2017-06-28T01:58:13.853Z,0
2017-06-28T01:59:13.887Z,0
2017-06-28T02:00:14.011Z,0
2017-06-28T02:01:13.937Z,0
2017-06-28T02:02:13.948Z,0
2017-06-28T02:03:14.001Z,0
2017-06-28T02:04:14.034Z,0
2017-06-28T02:05:14.091Z,4
2017-06-28T02:06:14.111Z,4
2017-06-28T02:07:14.127Z,4
2017-06-28T02:08:14.181Z,0
2017-06-28T02:09:14.200Z,0
2017-06-28T02:10:14.339Z,4
2017-06-28T02:11:14.279Z,4
2017-06-28T02:12:14.262Z,4
2017-06-28T02:13:14.340Z,4
2017-06-28T02:14:14.384Z,4
2017-06-28T02:15:14.465Z,8
2017-06-28T02:16:14.447Z,8
2017-06-28T02:17:14.477Z,4
2017-06-28T02:18:14.514Z,4
2017-06-28T02:19:14.532Z,8
2017-06-28T02:20:14.568Z,8
2017-06-28T02:21:14.604Z,12
2017-06-28T02:22:14.630Z,12
2017-06-28T02:23:14.649Z,12
2017-06-28T02:24:14.666Z,16
2017-06-28T02:25:14.741Z,16
2017-06-28T02:26:14.781Z,20
2017-06-28T02:27:14.778Z,20
2017-06-28T02:28:14.838Z,24
2017-06-28T02:29:14.865Z,24
2017-06-28T02:30:14.876Z,28
2017-06-28T02:31:14.912Z,28
2017-06-28T02:32:14.975Z,32
2017-06-28T02:33:14.977Z,36
2017-06-28T02:34:15.040Z,40
2017-06-28T02:35:15.042Z,44
2017-06-28T02:36:15.089Z,52
2017-06-28T02:37:15.136Z,52
2017-06-28T02:38:15.164Z,56
2017-06-28T02:39:15.185Z,60
2017-06-28T02:40:15.233Z,68
2017-06-28T02:41:15.267Z,76
2017-06-28T02:42:15.288Z,84
2017-06-28T02:43:15.346Z,88
2017-06-28T02:44:15.354Z,96
2017-06-28T02:45:15.392Z,104
2017-06-28T02:46:15.432Z,108
2017-06-28T02:47:15.444Z,120
2017-06-28T02:48:15.486Z,128
2017-06-28T02:49:15.493Z,132
2017-06-28T02:50:15.551Z,144
2017-06-28T02:51:15.592Z,152
2017-06-28T02:52:15.613Z,160
2017-06-28T02:53:15.658Z,168
2017-06-28T02:54:15.702Z,180
2017-06-28T02:55:15.719Z,188
2017-06-28T02:56:15.745Z,200
2017-06-28T02:57:15.790Z,208
2017-06-28T02:58:15.819Z,216
2017-06-28T02:59:15.835Z,228
2017-06-28T03:00:16.072Z,244
2017-06-28T03:01:15.901Z,256
2017-06-28T03:02:15.952Z,264
2017-06-28T03:03:15.990Z,272
2017-06-28T03:04:15.992Z,276
2017-06-28T03:05:16.039Z,288
2017-06-28T03:06:16.091Z,296
2017-06-28T03:07:16.101Z,312
2017-06-28T03:08:16.156Z,328
2017-06-28T03:09:16.187Z,336
2017-06-28T03:10:16.217Z,348
2017-06-28T03:11:16.245Z,356
2017-06-28T03:12:16.300Z,364
2017-06-28T03:13:16.354Z,372
2017-06-28T03:14:16.342Z,372
2017-06-28T03:15:16.394Z,360
2017-06-28T03:16:16.398Z,356
2017-06-28T03:17:16.432Z,384
2017-06-28T03:18:16.489Z,420
2017-06-28T03:19:16.500Z,464
2017-06-28T03:20:16.574Z,504
2017-06-28T03:21:16.593Z,532
2017-06-28T03:22:16.602Z,560
2017-06-28T03:23:16.630Z,584
2017-06-28T03:24:16.657Z,600
2017-06-28T03:25:16.715Z,592
2017-06-28T03:26:18.158Z,584
2017-06-28T03:27:19.271Z,572
2017-06-28T03:28:16.857Z,564
2017-06-28T03:29:16.835Z,560
2017-06-28T03:30:17.501Z,568
2017-06-28T03:31:16.892Z,584
2017-06-28T03:32:16.934Z,608
2017-06-28T03:33:16.999Z,644
2017-06-28T03:34:17.019Z,684
2017-06-28T03:35:17.057Z,720
2017-06-28T03:36:17.065Z,748
2017-06-28T03:37:17.097Z,760
2017-06-28T03:38:17.144Z,772
2017-06-28T03:39:17.155Z,788
2017-06-28T03:40:17.220Z,808
2017-06-28T03:41:17.246Z,828
2017-06-28T03:42:17.299Z,852
2017-06-28T03:43:17.306Z,900
2017-06-28T03:44:17.379Z,948
2017-06-28T03:45:17.398Z,984
2017-06-28T03:46:17.392Z,1032
2017-06-28T03:47:17.446Z,1116
2017-06-28T03:48:17.467Z,1188
2017-06-28T03:49:17.511Z,1268
2017-06-28T03:50:17.522Z,1336
2017-06-28T03:51:17.573Z,1364
2017-06-28T03:52:17.611Z,1352
2017-06-28T03:53:17.618Z,1344
2017-06-28T03:54:17.665Z,1332
2017-06-28T03:55:17.694Z,1336
2017-06-28T03:56:17.745Z,1360
2017-06-28T03:57:17.777Z,1420
2017-06-28T03:58:17.793Z,1488
2017-06-28T03:59:17.851Z,1568
2017-06-28T04:00:36.075Z,1632
2017-06-28T04:01:23.368Z,1640
2017-06-28T04:02:23.415Z,1616
2017-06-28T04:03:23.450Z,1580
2017-06-28T04:04:23.511Z,1544
2017-06-28T04:05:23.548Z,1560
2017-06-28T04:06:23.577Z,1596
2017-06-28T04:07:23.614Z,1668
2017-06-28T04:08:23.671Z,1772
2017-06-28T04:09:23.618Z,1912
2017-06-28T04:10:23.754Z,2064
2017-06-28T04:11:23.742Z,2316
2017-06-28T04:12:23.747Z,2588
2017-06-28T04:13:23.929Z,2844
2017-06-28T04:14:23.869Z,3556
2017-06-28T04:15:23.876Z,4916
2017-06-28T04:16:24.008Z,5716
2017-06-28T04:17:23.941Z,6452
2017-06-28T04:18:23.978Z,6532
2017-06-28T04:19:24.008Z,6032
2017-06-28T04:20:24.057Z,5488
2017-06-28T04:21:24.068Z,5304
2017-06-28T04:22:24.110Z,5068
2017-06-28T04:23:24.105Z,4592
2017-06-28T04:24:24.168Z,4660
2017-06-28T04:25:24.165Z,6148
2017-06-28T04:26:24.261Z,7056
2017-06-28T04:27:24.335Z,7400
2017-06-28T04:28:24.306Z,7476
2017-06-28T04:29:24.345Z,7336
2017-06-28T04:30:24.348Z,6092
2017-06-28T04:31:24.429Z,6616
2017-06-28T04:32:24.510Z,6024
2017-06-28T04:33:24.478Z,6412
2017-06-28T04:34:24.539Z,5256
2017-06-28T04:35:24.540Z,4660
2017-06-28T04:36:24.598Z,4456
2017-06-28T04:37:24.583Z,4664
2017-06-28T04:38:24.677Z,4800
2017-06-28T04:39:24.715Z,5072
2017-06-28T04:40:24.756Z,5224
2017-06-28T04:41:24.760Z,5200
2017-06-28T04:42:24.842Z,4952
2017-06-28T04:43:24.857Z,4808
2017-06-28T04:44:24.887Z,4864
2017-06-28T04:45:24.903Z,5428
2017-06-28T04:46:24.961Z,6176
2017-06-28T04:47:24.977Z,6488
2017-06-28T04:48:25.048Z,7408
2017-06-28T04:49:25.078Z,7788
2017-06-28T04:50:25.087Z,7348
2017-06-28T04:51:25.101Z,6996
2017-06-28T04:52:25.139Z,6684
2017-06-28T04:53:25.218Z,7384
2017-06-28T04:54:25.227Z,6020
2017-06-28T04:55:25.322Z,5840
2017-06-28T04:56:25.319Z,5832
2017-06-28T04:57:25.338Z,5812
2017-06-28T04:58:25.376Z,5972
2017-06-28T04:59:25.424Z,6148
2017-06-28T05:00:31.194Z,7220
2017-06-28T05:01:25.476Z,7588
2017-06-28T05:02:25.514Z,8316
2017-06-28T05:03:25.594Z,8832
2017-06-28T05:04:26.808Z,9204
2017-06-28T05:05:27.660Z,6632
2017-06-28T05:06:26.445Z,5856
2017-06-28T05:07:26.187Z,5456
2017-06-28T05:08:25.779Z,5636
2017-06-28T05:09:25.803Z,6080
2017-06-28T05:10:25.803Z,9532
2017-06-28T05:11:25.882Z,7164
2017-06-28T05:12:25.884Z,23968
2017-06-28T05:13:26.009Z,9168
2017-06-28T05:14:26.014Z,9988
2017-06-28T05:15:26.008Z,9276
2017-06-28T05:16:26.104Z,16992
2017-06-28T05:17:26.047Z,16832
2017-06-28T05:18:26.608Z,23008
2017-06-28T05:19:26.391Z,22720
2017-06-28T05:20:26.455Z,23136
2017-06-28T05:21:26.270Z,17472
2017-06-28T05:22:26.275Z,15200
2017-06-28T05:23:26.525Z,9940
2017-06-28T05:24:26.331Z,10884
2017-06-28T05:25:26.659Z,14120
2017-06-28T05:26:27.617Z,8128
2017-06-28T05:27:26.432Z,9440
2017-06-28T05:28:26.497Z,7112
2017-06-28T05:29:26.515Z,7776
2017-06-28T05:30:29.825Z,6276
2017-06-28T05:31:27.469Z,5924
2017-06-28T05:32:27.350Z,5100
2017-06-28T05:33:26.763Z,6228
2017-06-28T05:34:26.955Z,7796
2017-06-28T05:35:26.855Z,12928
2017-06-28T05:36:26.893Z,13396
2017-06-28T05:37:26.887Z,7196
2017-06-28T05:38:27.516Z,7632
2017-06-28T05:39:26.888Z,6352
2017-06-28T05:40:26.977Z,7216
2017-06-28T05:41:27.192Z,5336
2017-06-28T05:42:26.992Z,9068
2017-06-28T05:43:27.056Z,6676
2017-06-28T05:44:27.087Z,9544
2017-06-28T05:45:27.132Z,10464
2017-06-28T05:46:27.135Z,6600
2017-06-28T05:47:27.193Z,10040
2017-06-28T05:48:27.476Z,9488
2017-06-28T05:49:27.268Z,13808
2017-06-28T05:50:27.329Z,15264
2017-06-28T05:51:27.331Z,15776
2017-06-28T05:52:27.586Z,9000
2017-06-28T05:53:27.410Z,8344
2017-06-28T05:54:27.460Z,6900
2017-06-28T05:55:27.499Z,8572
2017-06-28T05:56:27.517Z,8008
2017-06-28T05:57:27.523Z,7788
2017-06-28T05:58:27.610Z,6520
2017-06-28T05:59:27.597Z,8420
2017-06-28T06:00:35.043Z,10052
2017-06-28T06:01:27.740Z,9308
2017-06-28T06:02:27.706Z,6004
2017-06-28T06:03:27.868Z,6064
2017-06-28T06:04:27.795Z,15444
2017-06-28T06:05:27.958Z,6056
2017-06-28T06:06:27.878Z,6744
2017-06-28T06:07:27.920Z,6324
2017-06-28T06:08:27.969Z,8424
2017-06-28T06:09:27.973Z,14460
2017-06-28T06:10:28.083Z,13604
2017-06-28T06:11:28.112Z,20224
2017-06-28T06:12:28.068Z,13928
2017-06-28T06:13:28.160Z,15132
2017-06-28T06:14:28.206Z,22208
2017-06-28T06:15:28.211Z,21632
2017-06-28T06:16:28.247Z,32416
2017-06-28T06:17:28.259Z,39648
2017-06-28T06:18:28.353Z,41952
2017-06-28T06:19:28.402Z,39456
2017-06-28T06:20:28.421Z,38208
2017-06-28T06:21:28.450Z,37440
2017-06-28T06:22:28.457Z,41984
2017-06-28T06:23:28.530Z,38720
2017-06-28T06:24:28.592Z,35968
2017-06-28T06:25:28.615Z,37152
2017-06-28T06:26:28.665Z,37312
2017-06-28T06:27:28.626Z,41728
2017-06-28T06:28:28.762Z,41504
2017-06-28T06:29:28.747Z,40064
2017-06-28T06:30:28.793Z,40000
2017-06-28T06:31:28.831Z,39680
2017-06-28T06:32:28.880Z,38464
2017-06-28T06:33:28.879Z,39360
2017-06-28T06:34:28.973Z,40096
2017-06-28T06:35:28.983Z,39712
2017-06-28T06:36:29.043Z,39040
2017-06-28T06:37:29.079Z,34976
2017-06-28T06:38:29.123Z,29920
2017-06-28T06:39:29.193Z,25728
2017-06-28T06:40:29.271Z,21056
2017-06-28T06:41:29.252Z,15552
2017-06-28T06:42:29.272Z,14080
2017-06-28T06:43:29.334Z,13748
2017-06-28T06:44:29.382Z,13688
2017-06-28T06:45:29.375Z,13524
2017-06-28T06:46:29.624Z,11388
2017-06-28T06:47:29.492Z,12644
2017-06-28T06:48:29.597Z,12536
2017-06-28T06:49:29.598Z,12796
2017-06-28T06:50:29.603Z,12772
2017-06-28T06:51:29.699Z,11912
2017-06-28T06:52:29.715Z,11632
2017-06-28T06:53:29.737Z,12112
2017-06-28T06:54:29.837Z,12048
2017-06-28T06:55:30.450Z,13012
2017-06-28T06:56:30.296Z,13324
2017-06-28T06:57:29.892Z,13360
2017-06-28T06:58:30.021Z,13336
2017-06-28T06:59:30.002Z,13176
2017-06-28T07:00:30.031Z,13136
2017-06-28T07:01:30.123Z,13012
2017-06-28T07:02:30.176Z,13048
2017-06-28T07:03:30.137Z,13180
2017-06-28T07:04:30.196Z,13152
2017-06-28T07:05:30.283Z,13188
2017-06-28T07:06:30.285Z,13132
2017-06-28T07:07:30.336Z,12756
2017-06-28T07:08:30.386Z,12200
2017-06-28T07:09:30.394Z,11652
2017-06-28T07:10:30.437Z,11792
2017-06-28T07:11:30.509Z,11460
2017-06-28T07:12:30.615Z,11208
2017-06-28T07:13:30.617Z,11180
2017-06-28T07:14:30.711Z,11200
2017-06-28T07:15:30.678Z,11260
2017-06-28T07:16:30.732Z,11388
2017-06-28T07:17:30.842Z,11548
2017-06-28T07:18:30.820Z,11540
2017-06-28T07:19:30.924Z,11388
2017-06-28T07:20:30.925Z,11364
2017-06-28T07:21:34.251Z,10836
2017-06-28T07:22:30.962Z,10724
2017-06-28T07:23:31.011Z,10028
2017-06-28T07:24:31.118Z,9384
2017-06-28T07:25:31.229Z,9852
2017-06-28T07:26:31.151Z,9716
2017-06-28T07:27:31.245Z,9460
2017-06-28T07:28:31.234Z,10012
2017-06-28T07:29:31.280Z,11320
2017-06-28T07:30:31.346Z,11644
2017-06-28T07:31:31.391Z,11488
2017-06-28T07:32:31.462Z,11428
2017-06-28T07:33:31.473Z,11484
2017-06-28T07:34:31.534Z,11440
2017-06-28T07:35:31.553Z,11372
2017-06-28T07:36:31.600Z,10980
2017-06-28T07:37:31.699Z,11136
2017-06-28T07:38:31.672Z,11240
2017-06-28T07:39:31.727Z,11384
2017-06-28T07:40:31.766Z,11280
2017-06-28T07:41:31.873Z,11548
2017-06-28T07:42:31.848Z,11668
2017-06-28T07:43:31.863Z,11916
2017-06-28T07:44:31.989Z,12100
2017-06-28T07:45:32.008Z,12356
2017-06-28T07:46:32.064Z,12588
2017-06-28T07:47:32.117Z,13108
2017-06-28T07:48:32.097Z,13240
2017-06-28T07:49:32.176Z,14304
2017-06-28T07:50:32.241Z,15392
2017-06-28T07:51:32.302Z,17376
2017-06-28T07:52:32.318Z,19872
2017-06-28T07:53:32.394Z,24064
2017-06-28T07:54:32.386Z,26816
2017-06-28T07:55:32.459Z,30656
2017-06-28T07:56:32.525Z,31904
2017-06-28T07:57:32.498Z,35840
2017-06-28T07:58:32.532Z,39904
2017-06-28T07:59:32.641Z,36768
2017-06-28T08:00:32.676Z,37216
2017-06-28T08:01:32.722Z,38240
2017-06-28T08:02:32.760Z,37920
2017-06-28T08:03:32.775Z,44128
2017-06-28T08:04:32.810Z,49760
2017-06-28T08:05:32.906Z,60544
2017-06-28T08:06:32.999Z,63264
2017-06-28T08:07:32.977Z,64896
2017-06-28T08:08:33.103Z,66016
2017-06-28T08:09:33.042Z,67712
2017-06-28T08:10:33.126Z,65952
2017-06-28T08:11:33.193Z,62432
2017-06-28T08:12:33.263Z,60064
2017-06-28T08:13:33.261Z,58688
2017-06-28T08:14:33.390Z,58048
2017-06-28T08:15:33.350Z,59136
2017-06-28T08:16:33.485Z,58240
2017-06-28T08:17:33.412Z,57248
2017-06-28T08:18:33.529Z,57440
2017-06-28T08:19:33.513Z,57024
2017-06-28T08:20:33.530Z,59040
2017-06-28T08:21:33.626Z,61504
2017-06-28T08:22:33.680Z,58976
2017-06-28T08:23:33.666Z,57536
2017-06-28T08:24:33.733Z,57152
2017-06-28T08:25:33.778Z,55456
2017-06-28T08:26:33.823Z,53920
2017-06-28T08:27:33.872Z,57312
2017-06-28T08:28:33.916Z,58624
2017-06-28T08:29:33.970Z,60576
2017-06-28T08:30:34.007Z,61984
2017-06-28T08:31:34.057Z,61408
2017-06-28T08:32:34.110Z,59424
2017-06-28T08:33:34.199Z,57088
2017-06-28T08:34:34.200Z,55072
2017-06-28T08:35:34.279Z,54528
2017-06-28T08:36:34.326Z,52608
2017-06-28T08:37:34.434Z,50656
2017-06-28T08:38:34.410Z,50752
2017-06-28T08:39:34.422Z,52576
2017-06-28T08:40:34.470Z,54016
2017-06-28T08:41:34.514Z,54112
2017-06-28T08:42:34.545Z,54080
2017-06-28T08:43:34.599Z,54016
2017-06-28T08:44:34.672Z,54880
2017-06-28T08:45:34.723Z,54208
2017-06-28T08:46:34.782Z,55808
2017-06-28T08:47:34.834Z,56192
2017-06-28T08:48:34.883Z,56448
2017-06-28T08:49:34.889Z,56544
2017-06-28T08:50:34.958Z,55264
2017-06-28T08:51:35.018Z,54496
2017-06-28T08:52:35.036Z,56672
2017-06-28T08:53:35.066Z,57984
2017-06-28T08:54:35.125Z,57472
2017-06-28T08:55:35.168Z,55328
2017-06-28T08:56:35.225Z,57536
2017-06-28T08:57:35.294Z,61472
2017-06-28T08:58:35.353Z,61024
2017-06-28T08:59:35.323Z,60320
2017-06-28T09:00:35.418Z,59008
2017-06-28T09:01:35.481Z,58528
2017-06-28T09:02:35.566Z,60160
2017-06-28T09:03:35.585Z,63424
2017-06-28T09:04:35.652Z,63168
2017-06-28T09:05:35.652Z,61536
2017-06-28T09:06:35.668Z,58464
2017-06-28T09:07:35.713Z,61312
2017-06-28T09:08:35.753Z,61920
2017-06-28T09:09:35.824Z,64864
2017-06-28T09:10:35.900Z,62496
2017-06-28T09:11:35.903Z,65376
2017-06-28T09:12:36.018Z,64640
2017-06-28T09:13:36.053Z,63744
2017-06-28T09:14:36.061Z,62976
2017-06-28T09:15:36.100Z,61888
2017-06-28T09:16:36.128Z,59168
2017-06-28T09:17:36.217Z,61920
2017-06-28T09:18:36.184Z,60896
2017-06-28T09:19:36.246Z,66208
2017-06-28T09:20:36.357Z,70240
2017-06-28T09:21:36.362Z,68736
2017-06-28T09:22:36.415Z,68640
2017-06-28T09:23:36.448Z,66688
2017-06-28T09:24:36.491Z,64352
2017-06-28T09:25:36.589Z,64448
2017-06-28T09:26:36.577Z,64736
2017-06-28T09:27:36.736Z,64096
2017-06-28T09:28:36.732Z,60160
2017-06-28T09:29:36.800Z,55648
2017-06-28T09:30:36.820Z,65696
2017-06-28T09:31:36.824Z,64480
2017-06-28T09:32:36.889Z,65696
2017-06-28T09:33:36.959Z,58592
2017-06-28T09:34:36.984Z,54752
2017-06-28T09:35:37.021Z,63872
2017-06-28T09:36:37.087Z,71872
2017-06-28T09:37:37.145Z,72064
2017-06-28T09:38:37.142Z,66336
2017-06-28T09:39:37.186Z,57856
2017-06-28T09:40:37.325Z,51904
2017-06-28T09:41:37.311Z,47936
2017-06-28T09:42:37.373Z,21088
2017-06-28T09:43:37.431Z,16324
2017-06-28T09:44:37.499Z,13072
2017-06-28T09:45:37.523Z,42112
2017-06-28T09:46:37.607Z,39008
2017-06-28T09:47:37.674Z,38144
2017-06-28T09:48:37.683Z,33024
2017-06-28T09:49:37.742Z,32096
2017-06-28T09:50:37.760Z,27744
2017-06-28T09:51:37.794Z,24416
2017-06-28T09:52:37.810Z,22976
2017-06-28T09:53:37.956Z,14320
2017-06-28T09:54:37.956Z,19072
2017-06-28T09:55:37.992Z,20704
2017-06-28T09:56:38.051Z,11804
2017-06-28T09:57:38.082Z,20320
2017-06-28T09:58:38.144Z,20256
2017-06-28T09:59:38.225Z,20256
2017-06-28T10:00:38.251Z,21984
2017-06-28T10:01:38.239Z,20096
2017-06-28T10:02:38.310Z,21760
2017-06-28T10:03:38.401Z,16384
2017-06-28T10:04:38.434Z,11368
2017-06-28T10:05:38.723Z,22496
2017-06-28T10:06:38.525Z,23200
2017-06-28T10:07:38.538Z,25792
2017-06-28T10:08:38.618Z,12504
2017-06-28T10:09:38.687Z,13840
2017-06-28T10:10:38.710Z,24960
2017-06-28T10:11:38.770Z,12492
2017-06-28T10:12:38.822Z,21920
2017-06-28T10:13:38.821Z,11980
2017-06-28T10:14:38.893Z,12804
2017-06-28T10:15:38.878Z,12404
2017-06-28T10:16:39.058Z,21696
2017-06-28T10:17:39.052Z,19136
2017-06-28T10:18:39.061Z,12680
2017-06-28T10:19:39.093Z,17600
2017-06-28T10:20:39.156Z,18080
2017-06-28T10:21:39.226Z,18592
2017-06-28T10:22:39.199Z,18688
2017-06-28T10:23:39.323Z,18688
2017-06-28T10:24:39.348Z,18368
2017-06-28T10:25:39.383Z,19840
2017-06-28T10:26:39.433Z,20480
2017-06-28T10:27:39.487Z,22016
2017-06-28T10:28:39.527Z,21664
2017-06-28T10:29:39.512Z,21408
2017-06-28T10:30:39.568Z,21632
2017-06-28T10:31:39.641Z,13324
2017-06-28T10:32:39.709Z,22720
2017-06-28T10:33:39.751Z,21824
2017-06-28T10:34:39.786Z,15024
2017-06-28T10:35:39.820Z,11872
2017-06-28T10:36:39.905Z,13228
2017-06-28T10:37:39.927Z,21824
2017-06-28T10:38:39.954Z,16736
2017-06-28T10:39:39.980Z,21792
2017-06-28T10:40:40.086Z,22752
2017-06-28T10:41:40.099Z,14176
2017-06-28T10:42:40.107Z,12204
2017-06-28T10:43:40.227Z,13228
2017-06-28T10:44:40.188Z,16448
2017-06-28T10:45:40.295Z,10640
2017-06-28T10:46:40.285Z,13168
2017-06-28T10:47:40.312Z,19968
2017-06-28T10:48:40.388Z,11652
2017-06-28T10:49:40.434Z,19328
2017-06-28T10:50:40.480Z,18784
2017-06-28T10:51:40.558Z,17984
2017-06-28T10:52:40.610Z,16320
2017-06-28T10:53:40.623Z,14944
2017-06-28T10:54:40.632Z,14688
2017-06-28T10:55:40.682Z,13292
2017-06-28T10:56:40.756Z,12448
2017-06-28T10:57:40.792Z,12752
2017-06-28T10:58:40.859Z,13040
2017-06-28T10:59:40.834Z,10960
2017-06-28T11:00:40.924Z,11732
2017-06-28T11:01:41.119Z,10348
2017-06-28T11:02:40.989Z,10916
2017-06-28T11:03:41.054Z,10252
2017-06-28T11:04:41.042Z,11316
2017-06-28T11:05:41.121Z,12164
2017-06-28T11:06:41.152Z,11884
2017-06-28T11:07:41.268Z,11128
2017-06-28T11:08:41.220Z,9044
2017-06-28T11:09:41.272Z,8084
2017-06-28T11:10:41.293Z,7872
2017-06-28T11:11:41.353Z,8380
2017-06-28T11:12:41.418Z,8428
2017-06-28T11:13:41.466Z,8528
2017-06-28T11:14:41.485Z,8004
2017-06-28T11:15:41.523Z,7696
2017-06-28T11:16:41.593Z,7508
2017-06-28T11:17:41.652Z,7536
2017-06-28T11:18:41.666Z,7912
2017-06-28T11:19:41.683Z,8072
2017-06-28T11:20:41.717Z,8076
2017-06-28T11:21:41.828Z,8020
2017-06-28T11:22:41.808Z,8496
2017-06-28T11:23:41.872Z,7868
2017-06-28T11:24:41.895Z,7620
2017-06-28T11:25:41.934Z,7248
2017-06-28T11:26:42.042Z,8280
2017-06-28T11:27:42.130Z,8592
2017-06-28T11:28:42.115Z,9008
2017-06-28T11:29:42.098Z,9372
2017-06-28T11:30:42.137Z,9700
2017-06-28T11:31:42.237Z,10236
2017-06-28T11:32:42.330Z,9812
2017-06-28T11:33:42.280Z,8600
2017-06-28T11:34:42.319Z,6912
2017-06-28T11:35:42.378Z,7208
2017-06-28T11:36:42.382Z,6088
2017-06-28T11:37:42.459Z,6956
2017-06-28T11:38:42.436Z,7216
2017-06-28T11:39:42.583Z,8364
2017-06-28T11:40:42.599Z,9980
2017-06-28T11:41:42.592Z,9580
2017-06-28T11:42:42.635Z,7708
2017-06-28T11:43:42.698Z,7372
2017-06-28T11:44:42.724Z,7392
2017-06-28T11:45:42.806Z,8812
2017-06-28T11:46:42.839Z,8072
2017-06-28T11:47:42.813Z,8400
2017-06-28T11:48:42.841Z,7572
2017-06-28T11:49:42.951Z,7424
2017-06-28T11:50:43.016Z,5708
2017-06-28T11:51:43.026Z,5644
2017-06-28T11:52:43.048Z,5912
2017-06-28T11:53:43.084Z,6392
2017-06-28T11:54:43.124Z,6884
2017-06-28T11:55:43.182Z,7012
2017-06-28T11:56:43.251Z,7724
2017-06-28T11:57:43.227Z,7536
2017-06-28T11:58:43.283Z,7200
2017-06-28T11:59:43.321Z,8032
2017-06-28T12:00:43.356Z,8000
2017-06-28T12:01:43.428Z,7704
2017-06-28T12:02:43.456Z,7176
2017-06-28T12:03:43.523Z,7000
2017-06-28T12:04:43.518Z,5992
2017-06-28T12:05:43.603Z,6132
2017-06-28T12:06:43.585Z,5624
2017-06-28T12:07:43.652Z,5392
2017-06-28T12:08:43.692Z,5780
2017-06-28T12:09:43.707Z,6280
2017-06-28T12:10:43.753Z,6652
2017-06-28T12:11:43.806Z,6796
2017-06-28T12:12:43.856Z,6708
2017-06-28T12:13:43.876Z,6292
2017-06-28T12:14:43.895Z,5912
2017-06-28T12:15:43.966Z,6336
2017-06-28T12:16:43.979Z,7052
2017-06-28T12:17:44.081Z,7540
2017-06-28T12:18:44.083Z,7000
2017-06-28T12:19:44.140Z,6788
2017-06-28T12:20:44.226Z,6624
2017-06-28T12:21:44.191Z,6824
2017-06-28T12:22:44.250Z,6932
2017-06-28T12:23:44.326Z,6916
2017-06-28T12:24:44.344Z,6396
2017-06-28T12:25:44.365Z,6012
2017-06-28T12:26:44.401Z,5948
2017-06-28T12:27:44.447Z,5996
2017-06-28T12:28:44.457Z,6028
2017-06-28T12:29:44.520Z,6164
2017-06-28T12:30:44.577Z,6232
2017-06-28T12:31:44.638Z,6360
2017-06-28T12:32:44.624Z,6488
2017-06-28T12:33:44.688Z,6560
2017-06-28T12:34:44.711Z,6600
2017-06-28T12:35:44.798Z,6636
2017-06-28T12:36:44.838Z,6520
2017-06-28T12:37:45.073Z,6372
2017-06-28T12:38:44.868Z,5792
2017-06-28T12:39:44.987Z,5512
2017-06-28T12:40:44.963Z,5552
2017-06-28T12:41:44.991Z,5956
2017-06-28T12:42:45.075Z,6376
2017-06-28T12:43:45.130Z,6872
2017-06-28T12:44:45.316Z,7212
2017-06-28T12:45:45.405Z,7236
2017-06-28T12:46:45.193Z,7200
2017-06-28T12:47:45.286Z,7208
2017-06-28T12:48:45.298Z,7084
2017-06-28T12:49:45.326Z,6936
2017-06-28T12:50:45.401Z,6644
2017-06-28T12:51:45.429Z,6304
2017-06-28T12:52:45.452Z,5828
2017-06-28T12:53:45.478Z,5320
2017-06-28T12:54:45.528Z,5032
2017-06-28T12:55:45.540Z,4628
2017-06-28T12:56:45.645Z,4304
2017-06-28T12:57:45.628Z,4352
2017-06-28T12:58:45.636Z,4504
2017-06-28T12:59:45.738Z,4236
2017-06-28T13:00:45.739Z,3980
2017-06-28T13:01:46.060Z,3732
2017-06-28T13:02:45.962Z,3420
2017-06-28T13:03:45.978Z,3100
2017-06-28T13:04:45.891Z,2908
2017-06-28T13:05:45.984Z,2544
2017-06-28T13:06:46.032Z,2232
2017-06-28T13:07:46.089Z,1940
2017-06-28T13:08:46.098Z,1524
2017-06-28T13:09:46.120Z,1188
2017-06-28T13:10:46.175Z,972
2017-06-28T13:11:46.237Z,760
2017-06-28T13:12:46.235Z,576
2017-06-28T13:13:46.263Z,408
2017-06-28T13:14:46.364Z,304
2017-06-28T13:15:46.393Z,272
2017-06-28T13:16:46.444Z,272
2017-06-28T13:17:46.420Z,320
2017-06-28T13:18:46.481Z,372
2017-06-28T13:19:46.707Z,424
2017-06-28T13:20:46.569Z,476
2017-06-28T13:21:46.584Z,488
2017-06-28T13:22:46.612Z,516
2017-06-28T13:23:46.899Z,564
2017-06-28T13:24:46.705Z,612
2017-06-28T13:25:46.738Z,596
2017-06-28T13:26:46.821Z,600